sensor_id;sensor_type;location;lat;lon;timestamp;P1;durP1;ratioP1;P2;durP2;ratioP2
12218;SDS011;6172;42.646;23.344;2023-02-16T00:01:50;47.17;;;23.30;;
12218;SDS011;6172;42.646;23.344;2023-02-16T00:04:18;44.60;;;22.97;;
12218;SDS011;6172;42.646;23.344;2023-02-16T00:06:51;44.87;;;23.40;;
12218;SDS011;6172;42.646;23.344;2023-02-16T00:09:19;45.33;;;21.93;;
12218;SDS011;6172;42.646;23.344;2023-02-16T00:11:48;41.17;;;22.30;;
12218;SDS011;6172;42.646;23.344;2023-02-16T00:14:44;44.33;;;22.27;;
12218;SDS011;6172;42.646;23.344;2023-02-16T00:17:11;44.73;;;23.80;;
12218;SDS011;6172;42.646;23.344;2023-02-16T00:19:39;40.57;;;22.80;;
12218;SDS011;6172;42.646;23.344;2023-02-16T00:22:08;44.37;;;23.00;;
12218;SDS011;6172;42.646;23.344;2023-02-16T00:24:36;44.87;;;24.00;;
12218;SDS011;6172;42.646;23.344;2023-02-16T00:27:07;43.20;;;23.00;;
12218;SDS011;6172;42.646;23.344;2023-02-16T00:29:37;44.33;;;22.90;;
12218;SDS011;6172;42.646;23.344;2023-02-16T00:32:04;41.50;;;22.00;;
12218;SDS011;6172;42.646;23.344;2023-02-16T00:34:32;41.50;;;22.47;;
12218;SDS011;6172;42.646;23.344;2023-02-16T00:37:00;46.27;;;22.87;;
12218;SDS011;6172;42.646;23.344;2023-02-16T00:39:40;43.43;;;22.90;;
12218;SDS011;6172;42.646;23.344;2023-02-16T00:42:10;42.93;;;22.57;;
12218;SDS011;6172;42.646;23.344;2023-02-16T00:44:42;42.93;;;23.10;;
12218;SDS011;6172;42.646;23.344;2023-02-16T00:47:15;39.13;;;21.63;;
12218;SDS011;6172;42.646;23.344;2023-02-16T00:49:45;45.40;;;22.90;;
12218;SDS011;6172;42.646;23.344;2023-02-16T00:52:21;40.90;;;22.67;;
12218;SDS011;6172;42.646;23.344;2023-02-16T00:54:58;42.77;;;21.50;;
12218;SDS011;6172;42.646;23.344;2023-02-16T00:57:26;38.67;;;21.00;;
12218;SDS011;6172;42.646;23.344;2023-02-16T00:59:57;37.50;;;20.50;;
12218;SDS011;6172;42.646;23.344;2023-02-16T01:02:26;39.07;;;20.77;;
12218;SDS011;6172;42.646;23.344;2023-02-16T01:04:55;40.20;;;21.47;;
12218;SDS011;6172;42.646;23.344;2023-02-16T01:07:21;39.13;;;20.47;;
12218;SDS011;6172;42.646;23.344;2023-02-16T01:10:11;39.27;;;21.23;;
12218;SDS011;6172;42.646;23.344;2023-02-16T01:12:52;41.33;;;21.77;;
12218;SDS011;6172;42.646;23.344;2023-02-16T01:15:20;42.33;;;22.13;;
12218;SDS011;6172;42.646;23.344;2023-02-16T01:17:49;41.57;;;20.77;;
12218;SDS011;6172;42.646;23.344;2023-02-16T01:20:17;45.13;;;22.13;;
12218;SDS011;6172;42.646;23.344;2023-02-16T01:22:45;42.03;;;22.20;;
12218;SDS011;6172;42.646;23.344;2023-02-16T01:25:14;40.77;;;20.83;;
12218;SDS011;6172;42.646;23.344;2023-02-16T01:27:41;37.37;;;20.07;;
12218;SDS011;6172;42.646;23.344;2023-02-16T01:30:11;40.57;;;21.73;;
12218;SDS011;6172;42.646;23.344;2023-02-16T01:32:42;38.93;;;21.70;;
12218;SDS011;6172;42.646;23.344;2023-02-16T01:35:13;41.80;;;20.77;;
12218;SDS011;6172;42.646;23.344;2023-02-16T01:37:40;41.37;;;20.50;;
12218;SDS011;6172;42.646;23.344;2023-02-16T01:40:09;37.73;;;19.80;;
12218;SDS011;6172;42.646;23.344;2023-02-16T01:42:51;37.80;;;20.43;;
12218;SDS011;6172;42.646;23.344;2023-02-16T01:45:24;36.07;;;20.03;;
12218;SDS011;6172;42.646;23.344;2023-02-16T01:47:57;37.90;;;19.37;;
12218;SDS011;6172;42.646;23.344;2023-02-16T01:50:33;36.70;;;19.33;;
12218;SDS011;6172;42.646;23.344;2023-02-16T01:53:10;38.17;;;20.00;;
12218;SDS011;6172;42.646;23.344;2023-02-16T01:55:46;35.50;;;18.33;;
12218;SDS011;6172;42.646;23.344;2023-02-16T01:58:17;38.77;;;20.27;;
12218;SDS011;6172;42.646;23.344;2023-02-16T02:03:56;31.27;;;17.43;;
12218;SDS011;6172;42.646;23.344;2023-02-16T02:06:40;34.80;;;17.60;;
12218;SDS011;6172;42.646;23.344;2023-02-16T02:09:09;33.27;;;17.40;;
12218;SDS011;6172;42.646;23.344;2023-02-16T02:11:45;34.50;;;18.20;;
12218;SDS011;6172;42.646;23.344;2023-02-16T02:14:21;35.40;;;19.27;;
12218;SDS011;6172;42.646;23.344;2023-02-16T02:16:53;34.37;;;18.00;;
12218;SDS011;6172;42.646;23.344;2023-02-16T02:19:22;35.60;;;18.80;;
12218;SDS011;6172;42.646;23.344;2023-02-16T02:21:57;35.50;;;17.80;;
12218;SDS011;6172;42.646;23.344;2023-02-16T02:25:05;32.90;;;17.03;;
12218;SDS011;6172;42.646;23.344;2023-02-16T02:28:01;30.53;;;16.57;;
12218;SDS011;6172;42.646;23.344;2023-02-16T02:30:38;33.87;;;17.43;;
12218;SDS011;6172;42.646;23.344;2023-02-16T02:33:19;31.10;;;17.10;;
12218;SDS011;6172;42.646;23.344;2023-02-16T02:36:03;33.27;;;17.90;;
12218;SDS011;6172;42.646;23.344;2023-02-16T02:38:43;37.67;;;17.77;;
12218;SDS011;6172;42.646;23.344;2023-02-16T02:41:19;33.63;;;18.53;;
12218;SDS011;6172;42.646;23.344;2023-02-16T02:44:17;31.90;;;16.70;;
12218;SDS011;6172;42.646;23.344;2023-02-16T02:46:48;35.23;;;17.60;;
12218;SDS011;6172;42.646;23.344;2023-02-16T02:49:15;32.83;;;17.97;;
12218;SDS011;6172;42.646;23.344;2023-02-16T02:51:42;35.93;;;18.20;;
12218;SDS011;6172;42.646;23.344;2023-02-16T02:54:10;35.13;;;18.17;;
12218;SDS011;6172;42.646;23.344;2023-02-16T02:56:57;40.20;;;18.23;;
12218;SDS011;6172;42.646;23.344;2023-02-16T02:59:47;35.87;;;18.77;;
12218;SDS011;6172;42.646;23.344;2023-02-16T03:02:35;33.07;;;18.43;;
12218;SDS011;6172;42.646;23.344;2023-02-16T03:05:06;34.07;;;17.57;;
12218;SDS011;6172;42.646;23.344;2023-02-16T03:07:38;35.33;;;17.20;;
12218;SDS011;6172;42.646;23.344;2023-02-16T03:10:14;33.63;;;18.13;;
12218;SDS011;6172;42.646;23.344;2023-02-16T03:13:02;38.03;;;17.20;;
12218;SDS011;6172;42.646;23.344;2023-02-16T03:15:33;33.33;;;17.57;;
12218;SDS011;6172;42.646;23.344;2023-02-16T03:18:01;33.53;;;18.07;;
12218;SDS011;6172;42.646;23.344;2023-02-16T03:20:48;37.63;;;19.07;;
12218;SDS011;6172;42.646;23.344;2023-02-16T03:23:32;38.50;;;18.93;;
12218;SDS011;6172;42.646;23.344;2023-02-16T03:26:18;37.77;;;18.20;;
12218;SDS011;6172;42.646;23.344;2023-02-16T03:29:03;39.43;;;18.70;;
12218;SDS011;6172;42.646;23.344;2023-02-16T03:31:44;37.93;;;20.20;;
12218;SDS011;6172;42.646;23.344;2023-02-16T03:34:12;33.60;;;18.70;;
12218;SDS011;6172;42.646;23.344;2023-02-16T03:36:41;36.57;;;19.73;;
12218;SDS011;6172;42.646;23.344;2023-02-16T03:39:10;37.77;;;19.03;;
12218;SDS011;6172;42.646;23.344;2023-02-16T03:41:38;36.10;;;18.57;;
12218;SDS011;6172;42.646;23.344;2023-02-16T03:44:07;37.50;;;18.17;;
12218;SDS011;6172;42.646;23.344;2023-02-16T03:46:35;35.97;;;18.23;;
12218;SDS011;6172;42.646;23.344;2023-02-16T03:49:03;36.57;;;19.00;;
12218;SDS011;6172;42.646;23.344;2023-02-16T03:51:30;32.33;;;17.30;;
12218;SDS011;6172;42.646;23.344;2023-02-16T03:53:57;26.87;;;15.27;;
12218;SDS011;6172;42.646;23.344;2023-02-16T03:56:24;29.93;;;17.57;;
12218;SDS011;6172;42.646;23.344;2023-02-16T03:58:51;32.30;;;16.97;;
12218;SDS011;6172;42.646;23.344;2023-02-16T04:01:18;30.53;;;15.17;;
12218;SDS011;6172;42.646;23.344;2023-02-16T04:03:45;31.10;;;16.70;;
12218;SDS011;6172;42.646;23.344;2023-02-16T04:06:13;32.77;;;16.87;;
12218;SDS011;6172;42.646;23.344;2023-02-16T04:08:40;30.20;;;15.93;;
12218;SDS011;6172;42.646;23.344;2023-02-16T04:11:07;34.63;;;16.63;;
12218;SDS011;6172;42.646;23.344;2023-02-16T04:13:48;32.77;;;16.50;;
12218;SDS011;6172;42.646;23.344;2023-02-16T04:16:15;34.70;;;16.83;;
12218;SDS011;6172;42.646;23.344;2023-02-16T04:18:42;32.63;;;16.73;;
12218;SDS011;6172;42.646;23.344;2023-02-16T04:21:11;32.30;;;16.87;;
12218;SDS011;6172;42.646;23.344;2023-02-16T04:23:41;33.67;;;17.70;;
12218;SDS011;6172;42.646;23.344;2023-02-16T04:26:08;31.17;;;16.37;;
12218;SDS011;6172;42.646;23.344;2023-02-16T04:28:37;34.77;;;17.73;;
12218;SDS011;6172;42.646;23.344;2023-02-16T04:31:04;32.30;;;16.47;;
12218;SDS011;6172;42.646;23.344;2023-02-16T04:33:31;32.10;;;17.50;;
12218;SDS011;6172;42.646;23.344;2023-02-16T04:35:58;34.03;;;17.87;;
12218;SDS011;6172;42.646;23.344;2023-02-16T04:38:27;37.33;;;17.73;;
12218;SDS011;6172;42.646;23.344;2023-02-16T04:40:54;40.80;;;19.03;;
12218;SDS011;6172;42.646;23.344;2023-02-16T04:43:21;39.50;;;18.93;;
12218;SDS011;6172;42.646;23.344;2023-02-16T04:45:49;39.33;;;18.80;;
12218;SDS011;6172;42.646;23.344;2023-02-16T04:48:16;36.33;;;19.10;;
12218;SDS011;6172;42.646;23.344;2023-02-16T04:50:45;37.37;;;19.40;;
12218;SDS011;6172;42.646;23.344;2023-02-16T04:53:13;37.20;;;19.50;;
12218;SDS011;6172;42.646;23.344;2023-02-16T04:55:45;43.80;;;20.63;;
12218;SDS011;6172;42.646;23.344;2023-02-16T04:58:12;38.33;;;19.57;;
12218;SDS011;6172;42.646;23.344;2023-02-16T05:00:39;46.87;;;21.47;;
12218;SDS011;6172;42.646;23.344;2023-02-16T05:03:06;41.57;;;21.13;;
12218;SDS011;6172;42.646;23.344;2023-02-16T05:05:37;47.00;;;23.57;;
12218;SDS011;6172;42.646;23.344;2023-02-16T05:08:04;50.03;;;23.80;;
12218;SDS011;6172;42.646;23.344;2023-02-16T05:10:31;53.50;;;28.33;;
12218;SDS011;6172;42.646;23.344;2023-02-16T05:13:03;52.60;;;24.23;;
12218;SDS011;6172;42.646;23.344;2023-02-16T05:15:47;49.80;;;25.33;;
12218;SDS011;6172;42.646;23.344;2023-02-16T05:18:14;60.73;;;29.37;;
12218;SDS011;6172;42.646;23.344;2023-02-16T05:20:41;60.70;;;29.00;;
12218;SDS011;6172;42.646;23.344;2023-02-16T05:23:40;60.13;;;30.07;;
12218;SDS011;6172;42.646;23.344;2023-02-16T05:26:08;64.30;;;33.93;;
12218;SDS011;6172;42.646;23.344;2023-02-16T05:28:36;69.10;;;34.27;;
12218;SDS011;6172;42.646;23.344;2023-02-16T05:31:04;82.57;;;39.50;;
12218;SDS011;6172;42.646;23.344;2023-02-16T05:33:31;72.83;;;36.63;;
12218;SDS011;6172;42.646;23.344;2023-02-16T05:35:58;84.37;;;39.63;;
12218;SDS011;6172;42.646;23.344;2023-02-16T05:38:25;86.57;;;38.50;;
12218;SDS011;6172;42.646;23.344;2023-02-16T05:40:52;96.60;;;46.07;;
12218;SDS011;6172;42.646;23.344;2023-02-16T05:43:19;84.77;;;40.60;;
12218;SDS011;6172;42.646;23.344;2023-02-16T05:45:48;85.17;;;41.17;;
12218;SDS011;6172;42.646;23.344;2023-02-16T05:48:15;96.10;;;43.43;;
12218;SDS011;6172;42.646;23.344;2023-02-16T05:50:42;86.57;;;42.23;;
12218;SDS011;6172;42.646;23.344;2023-02-16T05:53:10;87.17;;;42.60;;
12218;SDS011;6172;42.646;23.344;2023-02-16T05:55:38;107.53;;;48.47;;
12218;SDS011;6172;42.646;23.344;2023-02-16T05:58:09;89.27;;;44.10;;
12218;SDS011;6172;42.646;23.344;2023-02-16T06:00:36;99.60;;;44.50;;
12218;SDS011;6172;42.646;23.344;2023-02-16T06:03:06;103.03;;;47.33;;
12218;SDS011;6172;42.646;23.344;2023-02-16T06:05:33;96.50;;;46.50;;
12218;SDS011;6172;42.646;23.344;2023-02-16T06:08:00;90.97;;;46.07;;
12218;SDS011;6172;42.646;23.344;2023-02-16T06:10:38;96.23;;;45.73;;
12218;SDS011;6172;42.646;23.344;2023-02-16T06:13:05;100.60;;;47.33;;
12218;SDS011;6172;42.646;23.344;2023-02-16T06:15:32;99.57;;;46.00;;
12218;SDS011;6172;42.646;23.344;2023-02-16T06:18:02;96.10;;;46.00;;
12218;SDS011;6172;42.646;23.344;2023-02-16T06:20:31;96.67;;;47.67;;
12218;SDS011;6172;42.646;23.344;2023-02-16T06:22:59;87.63;;;41.93;;
12218;SDS011;6172;42.646;23.344;2023-02-16T06:25:26;83.80;;;40.30;;
12218;SDS011;6172;42.646;23.344;2023-02-16T06:27:54;93.07;;;43.77;;
12218;SDS011;6172;42.646;23.344;2023-02-16T06:30:21;85.13;;;41.40;;
12218;SDS011;6172;42.646;23.344;2023-02-16T06:32:48;79.93;;;41.47;;
12218;SDS011;6172;42.646;23.344;2023-02-16T06:35:15;79.00;;;40.97;;
12218;SDS011;6172;42.646;23.344;2023-02-16T06:37:44;83.97;;;40.43;;
12218;SDS011;6172;42.646;23.344;2023-02-16T06:40:11;86.63;;;41.13;;
12218;SDS011;6172;42.646;23.344;2023-02-16T06:42:40;83.53;;;40.07;;
12218;SDS011;6172;42.646;23.344;2023-02-16T06:45:07;73.97;;;38.67;;
12218;SDS011;6172;42.646;23.344;2023-02-16T06:47:35;69.73;;;38.30;;
12218;SDS011;6172;42.646;23.344;2023-02-16T06:50:03;67.20;;;36.07;;
12218;SDS011;6172;42.646;23.344;2023-02-16T06:52:33;67.40;;;35.57;;
12218;SDS011;6172;42.646;23.344;2023-02-16T06:55:02;65.90;;;36.77;;
12218;SDS011;6172;42.646;23.344;2023-02-16T06:57:29;66.23;;;36.77;;
12218;SDS011;6172;42.646;23.344;2023-02-16T06:59:56;64.33;;;37.13;;
12218;SDS011;6172;42.646;23.344;2023-02-16T07:02:23;73.90;;;40.30;;
12218;SDS011;6172;42.646;23.344;2023-02-16T07:04:50;73.90;;;40.23;;
12218;SDS011;6172;42.646;23.344;2023-02-16T07:07:17;71.23;;;39.63;;
12218;SDS011;6172;42.646;23.344;2023-02-16T07:09:44;70.03;;;40.37;;
12218;SDS011;6172;42.646;23.344;2023-02-16T07:12:12;76.23;;;40.17;;
12218;SDS011;6172;42.646;23.344;2023-02-16T07:14:39;77.53;;;43.60;;
12218;SDS011;6172;42.646;23.344;2023-02-16T07:17:06;71.70;;;40.43;;
12218;SDS011;6172;42.646;23.344;2023-02-16T07:19:33;73.23;;;42.00;;
12218;SDS011;6172;42.646;23.344;2023-02-16T07:22:00;74.67;;;42.50;;
12218;SDS011;6172;42.646;23.344;2023-02-16T07:24:27;74.80;;;40.53;;
12218;SDS011;6172;42.646;23.344;2023-02-16T07:26:54;70.57;;;39.80;;
12218;SDS011;6172;42.646;23.344;2023-02-16T07:29:23;66.70;;;38.80;;
12218;SDS011;6172;42.646;23.344;2023-02-16T07:31:50;63.37;;;38.13;;
12218;SDS011;6172;42.646;23.344;2023-02-16T07:34:17;66.30;;;36.47;;
12218;SDS011;6172;42.646;23.344;2023-02-16T07:36:44;62.87;;;37.97;;
12218;SDS011;6172;42.646;23.344;2023-02-16T07:39:11;71.03;;;39.73;;
12218;SDS011;6172;42.646;23.344;2023-02-16T07:41:38;64.40;;;37.47;;
12218;SDS011;6172;42.646;23.344;2023-02-16T07:44:05;57.63;;;33.97;;
12218;SDS011;6172;42.646;23.344;2023-02-16T07:46:38;59.43;;;35.53;;
12218;SDS011;6172;42.646;23.344;2023-02-16T07:49:04;58.47;;;33.57;;
12218;SDS011;6172;42.646;23.344;2023-02-16T07:51:31;61.53;;;34.20;;
12218;SDS011;6172;42.646;23.344;2023-02-16T07:53:59;57.33;;;33.87;;
12218;SDS011;6172;42.646;23.344;2023-02-16T07:56:26;54.97;;;32.40;;
12218;SDS011;6172;42.646;23.344;2023-02-16T07:58:56;52.73;;;31.40;;
12218;SDS011;6172;42.646;23.344;2023-02-16T08:01:24;59.53;;;33.90;;
12218;SDS011;6172;42.646;23.344;2023-02-16T08:03:53;59.97;;;36.10;;
12218;SDS011;6172;42.646;23.344;2023-02-16T08:06:19;64.90;;;37.07;;
12218;SDS011;6172;42.646;23.344;2023-02-16T08:08:47;64.60;;;36.47;;
12218;SDS011;6172;42.646;23.344;2023-02-16T08:11:15;59.40;;;33.67;;
12218;SDS011;6172;42.646;23.344;2023-02-16T08:13:43;54.20;;;33.67;;
12218;SDS011;6172;42.646;23.344;2023-02-16T08:16:11;56.40;;;32.87;;
12218;SDS011;6172;42.646;23.344;2023-02-16T08:18:40;53.80;;;32.33;;
12218;SDS011;6172;42.646;23.344;2023-02-16T08:21:09;56.23;;;33.40;;
12218;SDS011;6172;42.646;23.344;2023-02-16T08:23:39;49.93;;;31.37;;
12218;SDS011;6172;42.646;23.344;2023-02-16T08:26:08;49.03;;;30.93;;
12218;SDS011;6172;42.646;23.344;2023-02-16T08:28:35;52.10;;;30.43;;
12218;SDS011;6172;42.646;23.344;2023-02-16T08:31:03;49.87;;;30.73;;
12218;SDS011;6172;42.646;23.344;2023-02-16T08:33:32;53.90;;;31.50;;
12218;SDS011;6172;42.646;23.344;2023-02-16T08:35:59;49.33;;;30.43;;
12218;SDS011;6172;42.646;23.344;2023-02-16T08:38:28;50.53;;;30.73;;
12218;SDS011;6172;42.646;23.344;2023-02-16T08:40:56;46.70;;;29.43;;
12218;SDS011;6172;42.646;23.344;2023-02-16T08:43:24;44.77;;;28.40;;
12218;SDS011;6172;42.646;23.344;2023-02-16T08:45:52;50.43;;;28.90;;
12218;SDS011;6172;42.646;23.344;2023-02-16T08:48:19;44.73;;;27.87;;
12218;SDS011;6172;42.646;23.344;2023-02-16T08:50:47;42.60;;;24.90;;
12218;SDS011;6172;42.646;23.344;2023-02-16T08:53:17;42.03;;;25.43;;
12218;SDS011;6172;42.646;23.344;2023-02-16T08:55:52;42.60;;;26.53;;
12218;SDS011;6172;42.646;23.344;2023-02-16T08:58:19;42.20;;;25.73;;
12218;SDS011;6172;42.646;23.344;2023-02-16T09:00:46;44.40;;;27.07;;
12218;SDS011;6172;42.646;23.344;2023-02-16T09:03:13;51.37;;;27.57;;
12218;SDS011;6172;42.646;23.344;2023-02-16T09:05:43;46.07;;;27.60;;
12218;SDS011;6172;42.646;23.344;2023-02-16T09:08:09;50.10;;;30.67;;
12218;SDS011;6172;42.646;23.344;2023-02-16T09:10:36;55.67;;;32.27;;
12218;SDS011;6172;42.646;23.344;2023-02-16T09:13:05;52.50;;;30.97;;
12218;SDS011;6172;42.646;23.344;2023-02-16T09:15:34;49.73;;;29.40;;
12218;SDS011;6172;42.646;23.344;2023-02-16T09:18:01;49.70;;;30.10;;
12218;SDS011;6172;42.646;23.344;2023-02-16T09:20:29;48.43;;;30.03;;
12218;SDS011;6172;42.646;23.344;2023-02-16T09:22:56;52.27;;;30.97;;
12218;SDS011;6172;42.646;23.344;2023-02-16T09:25:23;54.47;;;32.33;;
12218;SDS011;6172;42.646;23.344;2023-02-16T09:27:50;58.73;;;32.37;;
12218;SDS011;6172;42.646;23.344;2023-02-16T09:30:18;48.90;;;31.13;;
12218;SDS011;6172;42.646;23.344;2023-02-16T09:32:46;47.93;;;28.33;;
12218;SDS011;6172;42.646;23.344;2023-02-16T09:35:13;44.23;;;26.90;;
12218;SDS011;6172;42.646;23.344;2023-02-16T09:37:40;40.33;;;26.33;;
12218;SDS011;6172;42.646;23.344;2023-02-16T09:40:08;45.40;;;26.30;;
12218;SDS011;6172;42.646;23.344;2023-02-16T09:42:42;43.17;;;24.97;;
12218;SDS011;6172;42.646;23.344;2023-02-16T09:45:22;37.63;;;22.97;;
12218;SDS011;6172;42.646;23.344;2023-02-16T09:47:51;36.57;;;23.77;;
12218;SDS011;6172;42.646;23.344;2023-02-16T09:50:20;35.27;;;23.03;;
12218;SDS011;6172;42.646;23.344;2023-02-16T09:52:50;34.10;;;21.50;;
12218;SDS011;6172;42.646;23.344;2023-02-16T09:55:21;35.87;;;22.90;;
12218;SDS011;6172;42.646;23.344;2023-02-16T09:57:53;33.23;;;22.33;;
12218;SDS011;6172;42.646;23.344;2023-02-16T10:00:34;34.83;;;22.63;;
12218;SDS011;6172;42.646;23.344;2023-02-16T10:03:12;43.43;;;25.03;;
12218;SDS011;6172;42.646;23.344;2023-02-16T10:05:51;41.70;;;24.17;;
12218;SDS011;6172;42.646;23.344;2023-02-16T10:08:24;44.73;;;26.40;;
12218;SDS011;6172;42.646;23.344;2023-02-16T10:10:55;39.97;;;25.30;;
12218;SDS011;6172;42.646;23.344;2023-02-16T10:13:30;41.97;;;24.50;;
12218;SDS011;6172;42.646;23.344;2023-02-16T10:16:04;39.67;;;24.17;;
12218;SDS011;6172;42.646;23.344;2023-02-16T10:18:36;37.70;;;23.67;;
12218;SDS011;6172;42.646;23.344;2023-02-16T10:21:11;42.60;;;23.10;;
12218;SDS011;6172;42.646;23.344;2023-02-16T10:23:44;36.97;;;23.03;;
12218;SDS011;6172;42.646;23.344;2023-02-16T10:26:15;39.87;;;24.67;;
12218;SDS011;6172;42.646;23.344;2023-02-16T10:28:47;34.87;;;23.47;;
12218;SDS011;6172;42.646;23.344;2023-02-16T10:31:19;42.90;;;24.70;;
12218;SDS011;6172;42.646;23.344;2023-02-16T10:33:58;41.90;;;22.67;;
12218;SDS011;6172;42.646;23.344;2023-02-16T10:36:38;37.77;;;22.90;;
12218;SDS011;6172;42.646;23.344;2023-02-16T10:39:18;43.30;;;25.20;;
12218;SDS011;6172;42.646;23.344;2023-02-16T10:41:54;36.20;;;24.57;;
12218;SDS011;6172;42.646;23.344;2023-02-16T10:44:28;37.67;;;22.87;;
12218;SDS011;6172;42.646;23.344;2023-02-16T10:47:01;42.73;;;24.50;;
12218;SDS011;6172;42.646;23.344;2023-02-16T10:49:30;37.00;;;23.33;;
12218;SDS011;6172;42.646;23.344;2023-02-16T10:52:01;36.60;;;23.30;;
12218;SDS011;6172;42.646;23.344;2023-02-16T10:54:30;40.87;;;24.47;;
12218;SDS011;6172;42.646;23.344;2023-02-16T10:56:59;45.50;;;25.27;;
12218;SDS011;6172;42.646;23.344;2023-02-16T10:59:29;38.97;;;23.60;;
12218;SDS011;6172;42.646;23.344;2023-02-16T11:02:15;36.43;;;24.20;;
12218;SDS011;6172;42.646;23.344;2023-02-16T11:04:44;39.00;;;24.10;;
12218;SDS011;6172;42.646;23.344;2023-02-16T11:07:14;38.43;;;23.37;;
12218;SDS011;6172;42.646;23.344;2023-02-16T11:09:43;42.90;;;23.47;;
12218;SDS011;6172;42.646;23.344;2023-02-16T11:12:12;37.47;;;23.13;;
12218;SDS011;6172;42.646;23.344;2023-02-16T11:14:46;37.87;;;24.07;;
12218;SDS011;6172;42.646;23.344;2023-02-16T11:17:17;36.97;;;22.93;;
12218;SDS011;6172;42.646;23.344;2023-02-16T11:19:47;35.63;;;24.17;;
12218;SDS011;6172;42.646;23.344;2023-02-16T11:22:26;36.53;;;22.70;;
12218;SDS011;6172;42.646;23.344;2023-02-16T11:24:56;40.83;;;23.60;;
12218;SDS011;6172;42.646;23.344;2023-02-16T11:27:38;39.00;;;24.07;;
12218;SDS011;6172;42.646;23.344;2023-02-16T11:30:18;34.40;;;22.87;;
12218;SDS011;6172;42.646;23.344;2023-02-16T11:32:54;39.93;;;23.27;;
12218;SDS011;6172;42.646;23.344;2023-02-16T11:35:21;38.60;;;23.90;;
12218;SDS011;6172;42.646;23.344;2023-02-16T11:37:48;37.87;;;24.07;;
12218;SDS011;6172;42.646;23.344;2023-02-16T11:40:20;38.50;;;22.90;;
12218;SDS011;6172;42.646;23.344;2023-02-16T11:42:49;38.30;;;23.27;;
12218;SDS011;6172;42.646;23.344;2023-02-16T11:45:22;40.27;;;23.00;;
12218;SDS011;6172;42.646;23.344;2023-02-16T11:47:55;39.87;;;23.17;;
12218;SDS011;6172;42.646;23.344;2023-02-16T11:50:26;35.90;;;23.30;;
12218;SDS011;6172;42.646;23.344;2023-02-16T11:52:55;40.43;;;24.30;;
12218;SDS011;6172;42.646;23.344;2023-02-16T11:55:38;41.50;;;24.13;;
12218;SDS011;6172;42.646;23.344;2023-02-16T11:58:14;36.77;;;22.43;;
12218;SDS011;6172;42.646;23.344;2023-02-16T12:00:43;38.07;;;22.43;;
12218;SDS011;6172;42.646;23.344;2023-02-16T12:03:26;35.37;;;22.80;;
12218;SDS011;6172;42.646;23.344;2023-02-16T12:06:10;34.17;;;22.07;;
12218;SDS011;6172;42.646;23.344;2023-02-16T12:08:57;35.30;;;22.60;;
12218;SDS011;6172;42.646;23.344;2023-02-16T12:11:36;44.17;;;22.73;;
12218;SDS011;6172;42.646;23.344;2023-02-16T12:14:14;35.93;;;23.03;;
12218;SDS011;6172;42.646;23.344;2023-02-16T12:17:02;38.93;;;23.10;;
12218;SDS011;6172;42.646;23.344;2023-02-16T12:19:40;43.80;;;24.67;;
12218;SDS011;6172;42.646;23.344;2023-02-16T12:22:14;32.80;;;22.50;;
12218;SDS011;6172;42.646;23.344;2023-02-16T12:24:54;37.47;;;23.20;;
12218;SDS011;6172;42.646;23.344;2023-02-16T12:27:30;37.23;;;23.33;;
12218;SDS011;6172;42.646;23.344;2023-02-16T12:30:06;35.07;;;22.90;;
12218;SDS011;6172;42.646;23.344;2023-02-16T12:32:50;38.73;;;23.40;;
12218;SDS011;6172;42.646;23.344;2023-02-16T12:35:37;38.23;;;24.40;;
12218;SDS011;6172;42.646;23.344;2023-02-16T12:38:18;42.90;;;23.37;;
12218;SDS011;6172;42.646;23.344;2023-02-16T12:40:54;40.63;;;23.83;;
12218;SDS011;6172;42.646;23.344;2023-02-16T12:43:33;39.40;;;23.53;;
12218;SDS011;6172;42.646;23.344;2023-02-16T12:46:04;36.63;;;23.10;;
12218;SDS011;6172;42.646;23.344;2023-02-16T12:48:40;41.83;;;23.53;;
12218;SDS011;6172;42.646;23.344;2023-02-16T12:51:16;34.63;;;22.47;;
12218;SDS011;6172;42.646;23.344;2023-02-16T12:53:47;34.10;;;21.77;;
12218;SDS011;6172;42.646;23.344;2023-02-16T12:56:22;36.13;;;21.40;;
12218;SDS011;6172;42.646;23.344;2023-02-16T12:58:53;33.70;;;20.83;;
12218;SDS011;6172;42.646;23.344;2023-02-16T13:01:31;35.40;;;20.63;;
12218;SDS011;6172;42.646;23.344;2023-02-16T13:04:04;31.30;;;20.17;;
12218;SDS011;6172;42.646;23.344;2023-02-16T13:06:41;35.13;;;21.20;;
12218;SDS011;6172;42.646;23.344;2023-02-16T13:09:13;31.67;;;20.37;;
12218;SDS011;6172;42.646;23.344;2023-02-16T13:11:49;33.20;;;21.17;;
12218;SDS011;6172;42.646;23.344;2023-02-16T13:14:21;31.57;;;20.83;;
12218;SDS011;6172;42.646;23.344;2023-02-16T13:16:52;37.03;;;20.93;;
12218;SDS011;6172;42.646;23.344;2023-02-16T13:19:23;30.07;;;20.07;;
12218;SDS011;6172;42.646;23.344;2023-02-16T13:22:03;37.00;;;22.07;;
12218;SDS011;6172;42.646;23.344;2023-02-16T13:24:44;33.10;;;20.47;;
12218;SDS011;6172;42.646;23.344;2023-02-16T13:27:22;33.63;;;20.60;;
12218;SDS011;6172;42.646;23.344;2023-02-16T13:33:07;34.17;;;20.30;;
12218;SDS011;6172;42.646;23.344;2023-02-16T13:35:53;34.30;;;20.57;;
12218;SDS011;6172;42.646;23.344;2023-02-16T13:38:59;36.77;;;20.10;;
12218;SDS011;6172;42.646;23.344;2023-02-16T13:41:44;36.90;;;20.73;;
12218;SDS011;6172;42.646;23.344;2023-02-16T13:44:21;35.27;;;19.80;;
12218;SDS011;6172;42.646;23.344;2023-02-16T13:46:51;29.40;;;19.60;;
12218;SDS011;6172;42.646;23.344;2023-02-16T13:49:26;36.10;;;19.90;;
12218;SDS011;6172;42.646;23.344;2023-02-16T13:51:58;30.43;;;19.33;;
12218;SDS011;6172;42.646;23.344;2023-02-16T13:54:30;35.90;;;19.63;;
12218;SDS011;6172;42.646;23.344;2023-02-16T13:57:00;32.93;;;19.53;;
12218;SDS011;6172;42.646;23.344;2023-02-16T14:05:28;34.33;;;20.30;;
12218;SDS011;6172;42.646;23.344;2023-02-16T14:10:55;34.17;;;19.27;;
12218;SDS011;6172;42.646;23.344;2023-02-16T14:13:47;32.53;;;19.90;;
12218;SDS011;6172;42.646;23.344;2023-02-16T14:16:26;35.70;;;20.57;;
12218;SDS011;6172;42.646;23.344;2023-02-16T14:19:01;40.23;;;19.27;;
12218;SDS011;6172;42.646;23.344;2023-02-16T14:21:33;33.53;;;19.03;;
12218;SDS011;6172;42.646;23.344;2023-02-16T14:24:04;32.80;;;20.70;;
12218;SDS011;6172;42.646;23.344;2023-02-16T14:26:50;36.30;;;19.67;;
12218;SDS011;6172;42.646;23.344;2023-02-16T14:29:20;32.87;;;20.53;;
12218;SDS011;6172;42.646;23.344;2023-02-16T14:31:54;35.13;;;21.50;;
12218;SDS011;6172;42.646;23.344;2023-02-16T14:34:25;35.20;;;20.63;;
12218;SDS011;6172;42.646;23.344;2023-02-16T14:37:08;32.93;;;18.90;;
12218;SDS011;6172;42.646;23.344;2023-02-16T14:39:53;33.97;;;20.40;;
12218;SDS011;6172;42.646;23.344;2023-02-16T14:42:30;36.67;;;21.13;;
12218;SDS011;6172;42.646;23.344;2023-02-16T14:45:01;36.00;;;20.63;;
12218;SDS011;6172;42.646;23.344;2023-02-16T14:47:42;37.33;;;21.23;;
12218;SDS011;6172;42.646;23.344;2023-02-16T14:50:25;36.77;;;21.30;;
12218;SDS011;6172;42.646;23.344;2023-02-16T14:53:15;38.87;;;20.77;;
12218;SDS011;6172;42.646;23.344;2023-02-16T14:56:11;40.70;;;21.80;;
12218;SDS011;6172;42.646;23.344;2023-02-16T14:58:53;40.03;;;22.37;;
12218;SDS011;6172;42.646;23.344;2023-02-16T15:01:25;36.67;;;23.67;;
12218;SDS011;6172;42.646;23.344;2023-02-16T15:03:52;38.97;;;23.30;;
12218;SDS011;6172;42.646;23.344;2023-02-16T15:06:24;36.40;;;21.17;;